Terminal Aerodrome Forecast
Issued by NWS

Home | Current Version | Previous Version | Graphics & Text | Print | Product List | Glossary On
Versions: 1 2 3 4 5 6 7 8 9 10 11 12 13 14 15 16 17 18 19 20
000
FTUS43 KMPX 250600 AAA
TAFAXN
TAF AMD
KAXN 250613Z 2506/2606 13010KT P6SM SCT035 BKN100
     FM250730 21010G15KT 5SM -TSRA BR OVC035CB
      TEMPO 2508/2509 2SM TSRA OVC035CB
     FM251000 16007KT P6SM SCT020 BKN035
     FM251800 30007KT P6SM BKN040
     FM260100 29004KT P6SM SKC=

USA.gov is the U.S. government's official web portal to all federal, state and local government web resources and services.